createdAt,value
2022-08-27T00:00:57.631Z,94816.50
2022-08-27T00:03:51.661Z,94812.28
2022-08-27T00:06:38.621Z,94815.84
2022-08-27T00:09:12.701Z,94811.75
2022-08-27T00:11:59.619Z,94805.88
2022-08-27T00:14:34.694Z,94814.63
2022-08-27T00:17:21.644Z,94812.19
2022-08-27T00:20:01.614Z,94804.38
2022-08-27T00:22:48.632Z,94804.50
2022-08-27T00:25:22.822Z,94802.16
2022-08-27T00:28:16.645Z,94806.69
2022-08-27T00:31:03.662Z,94798.31
2022-08-27T00:33:36.712Z,94797.53
2022-08-27T00:36:23.637Z,94788.06
2022-08-27T00:38:56.718Z,94792.31
2022-08-27T00:41:45.630Z,94794.91
2022-08-27T00:44:20.489Z,94786.44
2022-08-27T00:47:11.641Z,94790.19
2022-08-27T00:49:58.727Z,94788.56
2022-08-27T00:52:59.736Z,94792.81
2022-08-27T00:55:39.846Z,94790.19
2022-08-27T00:58:35.646Z,94791.84
2022-08-27T01:01:11.806Z,94792.72
2022-08-27T01:04:02.656Z,94793.63
2022-08-27T01:06:47.649Z,94787.19
2022-08-27T01:09:35.652Z,94792.53
2022-08-27T01:12:09.756Z,94795.13
2022-08-27T01:14:56.657Z,94793.31
2022-08-27T01:17:36.646Z,94804.41
2022-08-27T01:20:28.659Z,94795.84
2022-08-27T01:23:36.755Z,94791.63
2022-08-27T01:26:24.669Z,94797.16
2022-08-27T01:29:06.678Z,94794.72
2022-08-27T01:32:00.659Z,94797.47
2022-08-27T01:34:54.690Z,94795.97
2022-08-27T01:37:49.664Z,94805.63
2022-08-27T01:40:45.659Z,94799.69
2022-08-27T01:43:39.675Z,94799.81
2022-08-27T01:46:31.742Z,94803.56
2022-08-27T01:49:04.771Z,94808.94
2022-08-27T01:51:51.674Z,94809.19
2022-08-27T01:54:27.757Z,94806.63
2022-08-27T01:57:14.681Z,94803.25
2022-08-27T01:59:48.742Z,94810.06
2022-08-27T02:02:35.686Z,94817.69
2022-08-27T02:05:08.741Z,94813.44
2022-08-27T02:07:55.699Z,94812.72
2022-08-27T02:10:43.698Z,94815.47
2022-08-27T02:13:37.715Z,94807.97
2022-08-27T02:16:31.703Z,94802.81
2022-08-27T02:19:26.676Z,94805.44
2022-08-27T02:22:13.681Z,94799.75
2022-08-27T02:24:53.695Z,94787.94
2022-08-27T02:27:47.697Z,94797.56
2022-08-27T02:30:44.692Z,94796.78
2022-08-27T02:33:31.698Z,94790.81
2022-08-27T02:36:11.720Z,94784.75
2022-08-27T02:38:58.684Z,94789.03
2022-08-27T02:41:31.796Z,94787.28
2022-08-27T02:44:18.681Z,94789.84
2022-08-27T02:46:58.756Z,94789.72
2022-08-27T02:49:45.702Z,94792.25
2022-08-27T02:52:25.695Z,94788.78
2022-08-27T02:55:13.730Z,94785.38
2022-08-27T02:57:46.792Z,94788.84
2022-08-27T03:00:35.718Z,94787.09
2022-08-27T03:03:10.742Z,94784.56
2022-08-27T03:05:57.749Z,94789.84
2022-08-27T03:08:52.017Z,94781.53
2022-08-27T03:11:40.696Z,94790.19
2022-08-27T03:14:14.831Z,94781.56
2022-08-27T03:17:01.721Z,94780.78
2022-08-27T03:19:41.731Z,94785.31
2022-08-27T03:22:28.732Z,94777.03
2022-08-27T03:25:08.750Z,94774.56
2022-08-27T03:27:55.731Z,94781.28
2022-08-27T03:30:52.776Z,94779.53
2022-08-27T03:33:45.736Z,94787.25
2022-08-27T03:36:18.823Z,94782.28
2022-08-27T03:39:05.759Z,94785.03
2022-08-27T03:41:54.751Z,94785.09
2022-08-27T03:44:42.742Z,94790.34
2022-08-27T03:47:22.730Z,94783.47
2022-08-27T03:50:11.729Z,94791.94
2022-08-27T03:52:51.741Z,94792.13
2022-08-27T03:55:39.742Z,94792.28
2022-08-27T03:58:24.759Z,94785.69
2022-08-27T04:01:19.778Z,94780.78
2022-08-27T04:04:06.758Z,94784.38
2022-08-27T04:06:41.008Z,94784.38
2022-08-27T04:09:27.745Z,94781.03
2022-08-27T04:12:03.871Z,94784.34
2022-08-27T04:14:50.738Z,94789.25
2022-08-27T04:17:23.869Z,94788.25
2022-08-27T04:20:34.043Z,94792.44
2022-08-27T04:23:12.759Z,94794.09
2022-08-27T04:26:06.764Z,94788.00
2022-08-27T04:29:00.741Z,94786.25
2022-08-27T04:31:54.788Z,94787.09
2022-08-27T04:34:48.770Z,94795.75
2022-08-27T04:37:39.772Z,94787.22
2022-08-27T04:40:13.946Z,94789.72
2022-08-27T04:43:00.760Z,94788.84
2022-08-27T04:45:33.870Z,94783.72
2022-08-27T04:48:22.766Z,94782.16
2022-08-27T04:50:55.908Z,94789.88
2022-08-27T04:53:42.748Z,94786.47
2022-08-27T04:56:23.871Z,94778.03
2022-08-27T04:59:14.783Z,94775.56
2022-08-27T05:01:49.935Z,94778.78
2022-08-27T05:04:36.783Z,94780.13
2022-08-27T05:07:10.964Z,94774.34
2022-08-27T05:09:58.822Z,94778.81
2022-08-27T05:12:31.898Z,94774.72
2022-08-27T05:15:18.777Z,94770.72
2022-08-27T05:17:53.768Z,94776.13
2022-08-27T05:20:48.775Z,94767.75
2022-08-27T05:23:30.805Z,94772.25
2022-08-27T05:26:17.795Z,94775.78
2022-08-27T05:28:51.972Z,94776.06
2022-08-27T05:31:38.860Z,94772.09
2022-08-27T05:34:15.417Z,94774.00
2022-08-27T05:37:11.799Z,94769.09
2022-08-27T05:39:44.960Z,94772.66
2022-08-27T05:42:34.812Z,94770.28
2022-08-27T05:45:14.968Z,94773.06
2022-08-27T05:48:08.894Z,94773.28
2022-08-27T05:50:55.801Z,94776.97
2022-08-27T05:53:29.106Z,94771.31
2022-08-27T05:56:24.818Z,94773.34
2022-08-27T05:59:16.550Z,94765.69
2022-08-27T06:02:04.816Z,94771.81
2022-08-27T06:04:44.808Z,94777.97
2022-08-27T06:07:38.790Z,94770.44
2022-08-27T06:10:26.801Z,94771.44
2022-08-27T06:12:59.880Z,94763.06
2022-08-27T06:15:46.869Z,94765.88
2022-08-27T06:18:19.905Z,94769.56
2022-08-27T06:21:07.880Z,94760.41
2022-08-27T06:23:41.898Z,94765.06
2022-08-27T06:26:30.812Z,94762.66
2022-08-27T06:29:10.057Z,94778.38
2022-08-27T06:31:56.821Z,94764.78
2022-08-27T06:34:31.759Z,94764.91
2022-08-27T06:37:18.837Z,94759.09
2022-08-27T06:39:52.064Z,94761.72
2022-08-27T06:42:38.832Z,94763.66
2022-08-27T06:45:20.823Z,94761.22
2022-08-27T06:48:14.846Z,94762.19
2022-08-27T06:51:08.836Z,94755.38
2022-08-27T06:53:55.873Z,94757.16
2022-08-27T06:56:36.847Z,94752.19
2022-08-27T06:59:25.880Z,94756.09
2022-08-27T07:02:05.923Z,94757.22
2022-08-27T07:04:52.839Z,94752.25
2022-08-27T07:07:37.188Z,94753.16
2022-08-27T07:10:35.877Z,94752.22
2022-08-27T07:13:23.880Z,94741.19
2022-08-27T07:15:57.023Z,94740.41
2022-08-27T07:18:39.876Z,94740.88
2022-08-27T07:21:27.874Z,94737.91
2022-08-27T07:24:15.878Z,94738.34
2022-08-27T07:26:50.052Z,94735.16
2022-08-27T07:29:36.861Z,94736.09
2022-08-27T07:32:16.826Z,94746.34
2022-08-27T07:35:10.869Z,94752.41
2022-08-27T07:37:57.878Z,94755.03
2022-08-27T07:40:37.904Z,94754.84
2022-08-27T07:43:46.855Z,94758.31
2022-08-27T07:46:20.041Z,94756.59
2022-08-27T07:49:06.863Z,94759.22
2022-08-27T07:51:46.870Z,94756.59
2022-08-27T07:54:40.890Z,94757.84
2022-08-27T07:57:27.878Z,94755.47
2022-08-27T08:00:01.007Z,94754.72
2022-08-27T08:02:51.953Z,94749.81
2022-08-27T08:05:31.886Z,94755.13
2022-08-27T08:08:18.878Z,94751.97
2022-08-27T08:10:58.867Z,94755.72
2022-08-27T08:13:52.876Z,94752.69
2022-08-27T08:16:40.035Z,94750.97
2022-08-27T08:19:19.902Z,94750.59
2022-08-27T08:22:13.890Z,94748.16
2022-08-27T08:25:00.900Z,94752.81
2022-08-27T08:27:34.029Z,94751.84
2022-08-27T08:30:21.884Z,94747.59
2022-08-27T08:33:01.898Z,94757.25
2022-08-27T08:35:48.899Z,94743.50
2022-08-27T08:38:30.978Z,94749.94
2022-08-27T08:41:49.897Z,94744.47
2022-08-27T08:44:51.907Z,94751.84
2022-08-27T08:48:02.895Z,94755.66
2022-08-27T08:50:50.966Z,94759.38
2022-08-27T08:54:01.914Z,94749.91
2022-08-27T08:57:12.964Z,94763.13
2022-08-27T09:00:18.916Z,94762.50
2022-08-27T09:03:12.912Z,94760.03
2022-08-27T09:06:14.963Z,94760.41
2022-08-27T09:08:49.384Z,94763.22
2022-08-27T09:11:56.959Z,94763.22
2022-08-27T09:14:56.329Z,94754.66
2022-08-27T09:17:44.977Z,94759.84
2022-08-27T09:20:20.030Z,94765.88
2022-08-27T09:23:15.979Z,94766.00
2022-08-27T09:25:50.025Z,94761.56
2022-08-27T09:28:55.915Z,94769.25
2022-08-27T09:31:50.964Z,94768.31
2022-08-27T09:34:46.972Z,94767.84
2022-08-27T09:37:38.968Z,94764.72
2022-08-27T09:40:56.976Z,94765.81
2022-08-27T09:43:45.983Z,94771.38
2022-08-27T09:46:38.969Z,94770.13
2022-08-27T09:49:32.972Z,94757.19
2022-08-27T09:52:38.972Z,94765.91
2022-08-27T09:55:13.085Z,94764.75
2022-08-27T09:58:01.988Z,94764.81
2022-08-27T10:00:47.579Z,94761.78
2022-08-27T10:03:33.998Z,94763.56
2022-08-27T10:06:13.984Z,94766.06
2022-08-27T10:09:07.989Z,94752.84
2022-08-27T10:11:57.077Z,94754.44
2022-08-27T10:14:48.966Z,94759.50
2022-08-27T10:17:55.984Z,94759.91
2022-08-27T10:21:15.624Z,94761.22
2022-08-27T10:24:25.789Z,94753.44
2022-08-27T10:27:09.647Z,94752.13
2022-08-27T10:30:19.984Z,94751.69
2022-08-27T10:33:25.743Z,94739.44
2022-08-27T10:36:34.141Z,94744.09
2022-08-27T10:40:09.762Z,94753.06
2022-08-27T10:43:06.074Z,94753.28
2022-08-27T10:46:11.753Z,94758.66
2022-08-27T10:48:52.084Z,94755.34
2022-08-27T10:51:48.009Z,94757.53
2022-08-27T10:54:30.134Z,94754.59
2022-08-27T10:57:53.204Z,94753.19
2022-08-27T11:00:30.068Z,94740.50
2022-08-27T11:03:23.027Z,94743.00
2022-08-27T11:05:58.100Z,94737.50
2022-08-27T11:08:48.037Z,94747.47
2022-08-27T11:15:00.038Z,94736.84
2022-08-27T11:17:49.029Z,94738.94
2022-08-27T11:20:55.023Z,94735.06
2022-08-27T11:24:02.040Z,94738.16
2022-08-27T11:26:50.032Z,94735.97
2022-08-27T11:30:00.208Z,94733.75
2022-08-27T11:32:54.035Z,94742.31
2022-08-27T11:36:04.050Z,94744.81
2022-08-27T11:39:04.037Z,94741.50
2022-08-27T11:42:07.065Z,94740.50
2022-08-27T11:44:50.662Z,94740.31
2022-08-27T11:47:38.750Z,94734.22
2022-08-27T11:50:22.127Z,94736.53
2022-08-27T11:53:14.038Z,94732.63
2022-08-27T11:55:47.166Z,94732.78
2022-08-27T11:58:52.880Z,94726.94
2022-08-27T12:01:43.076Z,94738.97
2022-08-27T12:04:33.171Z,94727.03
2022-08-27T12:07:11.855Z,94722.06
2022-08-27T12:10:27.071Z,94727.81
2022-08-27T12:13:23.100Z,94724.66
2022-08-27T12:16:30.115Z,94728.50
2022-08-27T12:19:36.064Z,94734.25
2022-08-27T12:22:16.146Z,94736.16
2022-08-27T12:25:05.073Z,94731.44
2022-08-27T12:27:40.127Z,94730.88
2022-08-27T12:30:48.041Z,94723.38
2022-08-27T12:33:56.077Z,94724.75
2022-08-27T12:36:52.059Z,94718.78
2022-08-27T12:39:56.135Z,94714.66
2022-08-27T12:42:44.057Z,94720.81
2022-08-27T12:45:26.204Z,94728.81
2022-08-27T12:48:16.073Z,94719.41
2022-08-27T12:50:58.083Z,94722.03
2022-08-27T12:54:18.133Z,94721.31
2022-08-27T12:57:30.069Z,94727.66
2022-08-27T13:00:28.141Z,94715.53
2022-08-27T13:03:18.085Z,94723.00
2022-08-27T13:06:12.075Z,94718.22
2022-08-27T13:09:06.085Z,94719.03
2022-08-27T13:11:42.163Z,94723.34
2022-08-27T13:14:31.082Z,94721.91
2022-08-27T13:17:09.242Z,94714.06
2022-08-27T13:20:07.146Z,94711.31
2022-08-27T13:22:54.066Z,94707.59
2022-08-27T13:25:49.091Z,94711.44
2022-08-27T13:28:46.209Z,94711.00
2022-08-27T13:31:41.188Z,94709.47
2022-08-27T13:34:42.144Z,94716.47
2022-08-27T13:37:42.172Z,94711.63
2022-08-27T13:40:35.147Z,94716.38
2022-08-27T13:43:16.171Z,94714.59
2022-08-27T13:46:05.093Z,94719.00
2022-08-27T13:48:40.178Z,94712.59
2022-08-27T13:51:36.140Z,94708.41
2022-08-27T13:54:23.096Z,94706.16
2022-08-27T13:57:17.110Z,94703.09
2022-08-27T13:59:50.180Z,94706.66
2022-08-27T14:02:39.188Z,94717.41
2022-08-27T14:05:26.232Z,94719.16
2022-08-27T14:08:30.142Z,94722.63
2022-08-27T14:11:17.128Z,94722.03
2022-08-27T14:13:54.285Z,94725.75
2022-08-27T14:16:42.129Z,94731.47
2022-08-27T14:19:33.405Z,94732.81
2022-08-27T14:22:24.142Z,94731.66
2022-08-27T14:25:04.143Z,94744.16
2022-08-27T14:27:54.270Z,94734.16
2022-08-27T14:30:31.585Z,94738.00
2022-08-27T14:33:18.140Z,94732.44
2022-08-27T14:35:52.290Z,94729.22
2022-08-27T14:38:41.045Z,94734.91
2022-08-27T14:41:22.134Z,94732.63
2022-08-27T14:44:09.153Z,94737.31
2022-08-27T14:46:43.326Z,94729.69
2022-08-27T14:49:36.150Z,94729.94
2022-08-27T14:52:11.225Z,94725.66
2022-08-27T14:54:58.154Z,94723.97
2022-08-27T14:57:31.229Z,94716.84
2022-08-27T15:00:20.862Z,94714.13
2022-08-27T15:02:55.637Z,94715.78
2022-08-27T15:05:43.032Z,94716.59
2022-08-27T15:08:27.634Z,94719.94
2022-08-27T15:11:23.170Z,94724.06
2022-08-27T15:13:58.247Z,94719.56
2022-08-27T15:16:47.172Z,94715.19
2022-08-27T15:19:20.232Z,94718.47
2022-08-27T15:22:16.958Z,94724.69
2022-08-27T15:24:54.242Z,94726.31
2022-08-27T15:27:42.158Z,94731.09
2022-08-27T15:30:19.234Z,94730.28
2022-08-27T15:33:06.165Z,94733.00
2022-08-27T15:35:46.185Z,94723.63
2022-08-27T15:38:40.177Z,94723.16
2022-08-27T15:41:30.194Z,94731.25
2022-08-27T15:44:11.164Z,94741.00
2022-08-27T15:46:59.194Z,94733.38
2022-08-27T15:49:32.267Z,94741.22
2022-08-27T15:52:21.166Z,94740.66
2022-08-27T15:55:03.148Z,94733.63
2022-08-27T15:57:57.156Z,94741.72
2022-08-27T16:00:45.180Z,94736.72
2022-08-27T16:03:35.479Z,94744.72
2022-08-27T16:06:30.154Z,94745.75
2022-08-27T16:09:17.165Z,94737.34
2022-08-27T16:11:50.223Z,94741.03
2022-08-27T16:14:37.174Z,94742.09
2022-08-27T16:17:10.302Z,94740.53
2022-08-27T16:19:58.313Z,94741.72
2022-08-27T16:22:31.272Z,94749.06
2022-08-27T16:25:19.174Z,94750.41
2022-08-27T16:27:54.317Z,94755.25
2022-08-27T16:30:48.268Z,94747.97
2022-08-27T16:33:42.190Z,94752.84
2022-08-27T16:36:29.190Z,94755.91
2022-08-27T16:39:09.179Z,94755.44
2022-08-27T16:42:03.186Z,94761.09
2022-08-27T16:44:50.169Z,94763.34
2022-08-27T16:47:30.192Z,94761.91
2022-08-27T16:50:35.179Z,94760.78
2022-08-27T16:53:26.189Z,94761.38
2022-08-27T16:56:13.985Z,94765.38
2022-08-27T16:58:47.275Z,94764.75
2022-08-27T17:01:34.254Z,94762.38
2022-08-27T17:04:15.371Z,94770.31
2022-08-27T17:07:05.219Z,94767.19
2022-08-27T17:09:38.796Z,94771.69
2022-08-27T17:12:31.204Z,94778.19
2022-08-27T17:15:04.290Z,94780.41
2022-08-27T17:17:51.186Z,94788.69
2022-08-27T17:20:24.309Z,94787.38
2022-08-27T17:23:13.212Z,94789.44
2022-08-27T17:25:53.222Z,94795.13
2022-08-27T17:28:47.219Z,94793.03
2022-08-27T17:31:45.239Z,94793.47
2022-08-27T17:34:32.226Z,94793.91
2022-08-27T17:37:13.201Z,94798.63
2022-08-27T17:40:00.336Z,94796.44
2022-08-27T17:42:42.213Z,94795.06
2022-08-27T17:45:36.247Z,94798.09
2022-08-27T17:48:26.595Z,94807.06
2022-08-27T17:51:00.316Z,94810.72
2022-08-27T17:54:00.456Z,94824.06
2022-08-27T17:56:39.445Z,94819.34
2022-08-27T17:59:27.242Z,94815.41
2022-08-27T18:02:07.236Z,94820.19
2022-08-27T18:05:01.287Z,94824.16
2022-08-27T18:07:49.227Z,94827.16
2022-08-27T18:10:27.296Z,94825.09
2022-08-27T18:13:14.237Z,94835.81
2022-08-27T18:15:57.242Z,94834.44
2022-08-27T18:18:45.251Z,94842.66
2022-08-27T18:21:25.137Z,94857.09
2022-08-27T18:24:12.248Z,94868.66
2022-08-27T18:26:52.255Z,94858.22
2022-08-27T18:29:40.252Z,94863.81
2022-08-27T18:32:34.248Z,94864.78
2022-08-27T18:35:25.261Z,94861.53
2022-08-27T18:37:58.353Z,94861.00
2022-08-27T18:40:50.273Z,94871.78
2022-08-27T18:43:27.351Z,94874.69
2022-08-27T18:46:14.292Z,94866.44
2022-08-27T18:48:55.335Z,94866.50
2022-08-27T18:51:52.522Z,94865.06
2022-08-27T18:54:39.262Z,94874.91
2022-08-27T18:57:13.091Z,94872.50
2022-08-27T19:00:00.268Z,94872.78
2022-08-27T19:02:34.536Z,94874.66
2022-08-27T19:05:22.285Z,94870.56
2022-08-27T19:08:02.267Z,94874.28
2022-08-27T19:10:56.273Z,94874.56
2022-08-27T19:13:43.262Z,94863.81
2022-08-27T19:16:30.351Z,94861.47
2022-08-27T19:19:27.294Z,94860.81
2022-08-27T19:22:21.293Z,94856.44
2022-08-27T19:25:08.287Z,94856.44
2022-08-27T19:27:49.276Z,94867.88
2022-08-27T19:30:43.286Z,94863.69
2022-08-27T19:33:30.289Z,94868.16
2022-08-27T19:36:04.426Z,94862.31
2022-08-27T19:38:52.309Z,94865.94
2022-08-27T19:41:27.994Z,94857.56
2022-08-27T19:44:15.292Z,94861.19
2022-08-27T19:46:48.376Z,94864.75
2022-08-27T19:49:35.306Z,94865.66
2022-08-27T19:52:08.751Z,94866.69
2022-08-27T19:55:13.206Z,94863.44
2022-08-27T19:57:47.396Z,94862.69
2022-08-27T20:00:34.285Z,94862.03
2022-08-27T20:03:07.464Z,94863.25
2022-08-27T20:05:56.299Z,94863.63
2022-08-27T20:08:29.417Z,94863.13
2022-08-27T20:11:16.317Z,94861.56
2022-08-27T20:13:56.295Z,94855.69
2022-08-27T20:16:43.360Z,94860.16
2022-08-27T20:19:16.413Z,94862.88
2022-08-27T20:22:03.322Z,94849.13
2022-08-27T20:24:43.335Z,94846.69
2022-08-27T20:27:30.338Z,94843.53
2022-08-27T20:30:04.736Z,94844.56
2022-08-27T20:32:53.305Z,94828.22
2022-08-27T20:35:28.424Z,94827.47
2022-08-27T20:38:15.321Z,94818.03
2022-08-27T20:40:48.409Z,94824.78
2022-08-27T20:43:35.330Z,94826.44
2022-08-27T20:46:10.999Z,94823.84
2022-08-27T20:48:59.331Z,94828.13
2022-08-27T20:51:56.793Z,94822.00
2022-08-27T20:54:54.332Z,94824.03
2022-08-27T20:57:41.330Z,94822.38
2022-08-27T21:00:21.568Z,94824.97
2022-08-27T21:03:08.331Z,94831.00
2022-08-27T21:05:47.171Z,94835.25
2022-08-27T21:08:34.347Z,94830.06
2022-08-27T21:11:07.415Z,94827.38
2022-08-27T21:13:56.617Z,94836.94
2022-08-27T21:16:39.363Z,94829.16
2022-08-27T21:19:33.384Z,94842.22
2022-08-27T21:22:27.566Z,94841.63
2022-08-27T21:25:16.331Z,94840.97
2022-08-27T21:27:49.467Z,94839.47
2022-08-27T21:30:43.336Z,94847.44
2022-08-27T21:33:37.847Z,94847.53
2022-08-27T21:36:26.362Z,94844.19
2022-08-27T21:38:59.540Z,94843.47
2022-08-27T21:41:46.360Z,94847.78
2022-08-27T21:44:29.348Z,94840.94
2022-08-27T21:47:24.372Z,94843.72
2022-08-27T21:50:13.374Z,94841.47
2022-08-27T21:52:46.495Z,94843.41
2022-08-27T21:55:33.368Z,94843.59
2022-08-27T21:58:06.454Z,94840.16
2022-08-27T22:00:56.471Z,94838.47
2022-08-27T22:03:31.473Z,94848.84
2022-08-27T22:06:19.399Z,94856.63
2022-08-27T22:08:52.452Z,94851.44
2022-08-27T22:11:39.391Z,94854.88
2022-08-27T22:14:12.485Z,94854.03
2022-08-27T22:16:59.458Z,94858.59
2022-08-27T22:19:39.404Z,94863.03
2022-08-27T22:22:30.805Z,94864.75
2022-08-27T22:25:11.402Z,94872.72
2022-08-27T22:27:59.385Z,94883.13
2022-08-27T22:30:39.374Z,94887.47
2022-08-27T22:33:26.406Z,94890.97
2022-08-27T22:36:06.394Z,94891.91
2022-08-27T22:39:04.112Z,94901.53
2022-08-27T22:41:51.453Z,94897.28
2022-08-27T22:44:24.501Z,94893.00
2022-08-27T22:47:11.405Z,94893.31
2022-08-27T22:49:44.540Z,94890.91
2022-08-27T22:52:31.405Z,94891.09
2022-08-27T22:55:04.475Z,94892.00
2022-08-27T22:57:52.417Z,94891.25
2022-08-27T23:00:36.412Z,94892.19
2022-08-27T23:03:23.413Z,94889.84
2022-08-27T23:06:04.472Z,94888.25
2022-08-27T23:08:51.401Z,94884.91
2022-08-27T23:11:31.403Z,94882.38
2022-08-27T23:14:25.416Z,94877.31
2022-08-27T23:17:12.430Z,94885.91
2022-08-27T23:19:52.409Z,94885.97
2022-08-27T23:22:39.402Z,94890.53
2022-08-27T23:25:40.575Z,94890.59
2022-08-27T23:28:29.411Z,94895.16
2022-08-27T23:31:02.565Z,94891.88
2022-08-27T23:33:49.413Z,94888.72
2022-08-27T23:36:29.451Z,94893.16
2022-08-27T23:39:17.425Z,94889.03
2022-08-27T23:41:51.542Z,94892.72
2022-08-27T23:44:38.429Z,94893.97
2022-08-27T23:47:11.497Z,94889.69
2022-08-27T23:49:58.433Z,94885.59
2022-08-27T23:52:38.424Z,94887.50
2022-08-27T23:55:32.461Z,94880.78
2022-08-27T23:58:19.450Z,94880.91
